sensor_id;sensor_type;location;lat;lon;timestamp;P1;durP1;ratioP1;P2;durP2;ratioP2
59024;SDS011;44806;48.008;13.666;2024-01-11T00:00:38;33.90;;;13.93;;
59024;SDS011;44806;48.008;13.666;2024-01-11T00:03:06;35.13;;;16.13;;
59024;SDS011;44806;48.008;13.666;2024-01-11T00:05:33;31.88;;;14.43;;
59024;SDS011;44806;48.008;13.666;2024-01-11T00:08:00;31.23;;;14.75;;
59024;SDS011;44806;48.008;13.666;2024-01-11T00:10:27;29.38;;;13.45;;
59024;SDS011;44806;48.008;13.666;2024-01-11T00:12:54;32.78;;;13.88;;
59024;SDS011;44806;48.008;13.666;2024-01-11T00:15:21;37.30;;;16.05;;
59024;SDS011;44806;48.008;13.666;2024-01-11T00:17:48;34.40;;;15.18;;
59024;SDS011;44806;48.008;13.666;2024-01-11T00:20:16;38.72;;;14.63;;
59024;SDS011;44806;48.008;13.666;2024-01-11T00:22:43;33.30;;;12.63;;
59024;SDS011;44806;48.008;13.666;2024-01-11T00:25:10;33.00;;;14.50;;
59024;SDS011;44806;48.008;13.666;2024-01-11T00:27:37;33.17;;;14.07;;
59024;SDS011;44806;48.008;13.666;2024-01-11T00:30:05;29.05;;;12.80;;
59024;SDS011;44806;48.008;13.666;2024-01-11T00:32:33;27.48;;;12.77;;
59024;SDS011;44806;48.008;13.666;2024-01-11T00:35:00;36.03;;;15.10;;
59024;SDS011;44806;48.008;13.666;2024-01-11T00:37:28;32.80;;;14.35;;
59024;SDS011;44806;48.008;13.666;2024-01-11T00:39:55;28.77;;;11.38;;
59024;SDS011;44806;48.008;13.666;2024-01-11T00:42:22;32.42;;;12.18;;
59024;SDS011;44806;48.008;13.666;2024-01-11T00:44:48;32.45;;;14.02;;
59024;SDS011;44806;48.008;13.666;2024-01-11T00:47:15;42.60;;;16.27;;
59024;SDS011;44806;48.008;13.666;2024-01-11T00:49:42;33.63;;;15.88;;
59024;SDS011;44806;48.008;13.666;2024-01-11T00:52:09;36.03;;;13.60;;
59024;SDS011;44806;48.008;13.666;2024-01-11T00:54:40;28.77;;;12.43;;
59024;SDS011;44806;48.008;13.666;2024-01-11T00:57:07;28.15;;;12.70;;
59024;SDS011;44806;48.008;13.666;2024-01-11T00:59:34;39.85;;;15.70;;
59024;SDS011;44806;48.008;13.666;2024-01-11T01:02:00;32.65;;;15.38;;
59024;SDS011;44806;48.008;13.666;2024-01-11T01:04:27;23.27;;;10.43;;
59024;SDS011;44806;48.008;13.666;2024-01-11T01:06:54;32.65;;;14.65;;
59024;SDS011;44806;48.008;13.666;2024-01-11T01:09:21;50.63;;;16.30;;
59024;SDS011;44806;48.008;13.666;2024-01-11T01:14:15;27.27;;;11.40;;
59024;SDS011;44806;48.008;13.666;2024-01-11T01:16:42;30.48;;;14.15;;
59024;SDS011;44806;48.008;13.666;2024-01-11T01:19:09;31.55;;;12.13;;
59024;SDS011;44806;48.008;13.666;2024-01-11T01:21:36;30.33;;;14.07;;
59024;SDS011;44806;48.008;13.666;2024-01-11T01:24:03;38.20;;;15.93;;
59024;SDS011;44806;48.008;13.666;2024-01-11T01:26:30;27.00;;;13.07;;
59024;SDS011;44806;48.008;13.666;2024-01-11T01:28:59;18.70;;;11.45;;
59024;SDS011;44806;48.008;13.666;2024-01-11T01:31:25;25.98;;;14.38;;
59024;SDS011;44806;48.008;13.666;2024-01-11T01:33:53;35.63;;;13.00;;
59024;SDS011;44806;48.008;13.666;2024-01-11T01:36:20;44.20;;;16.55;;
59024;SDS011;44806;48.008;13.666;2024-01-11T01:38:47;34.33;;;12.98;;
59024;SDS011;44806;48.008;13.666;2024-01-11T01:41:14;29.88;;;12.63;;
59024;SDS011;44806;48.008;13.666;2024-01-11T01:43:41;30.02;;;14.90;;
59024;SDS011;44806;48.008;13.666;2024-01-11T01:46:09;25.02;;;12.00;;
59024;SDS011;44806;48.008;13.666;2024-01-11T01:48:36;25.98;;;13.35;;
59024;SDS011;44806;48.008;13.666;2024-01-11T01:51:03;34.53;;;14.43;;
59024;SDS011;44806;48.008;13.666;2024-01-11T01:53:31;29.85;;;12.15;;
59024;SDS011;44806;48.008;13.666;2024-01-11T01:55:58;32.75;;;13.60;;
59024;SDS011;44806;48.008;13.666;2024-01-11T01:58:25;26.63;;;13.00;;
59024;SDS011;44806;48.008;13.666;2024-01-11T02:00:52;25.25;;;12.18;;
59024;SDS011;44806;48.008;13.666;2024-01-11T02:03:21;33.13;;;14.18;;
59024;SDS011;44806;48.008;13.666;2024-01-11T02:05:49;24.17;;;11.43;;
59024;SDS011;44806;48.008;13.666;2024-01-11T02:08:16;30.83;;;13.25;;
59024;SDS011;44806;48.008;13.666;2024-01-11T02:10:48;29.58;;;13.60;;
59024;SDS011;44806;48.008;13.666;2024-01-11T02:13:15;27.73;;;12.10;;
59024;SDS011;44806;48.008;13.666;2024-01-11T02:15:43;23.40;;;11.27;;
59024;SDS011;44806;48.008;13.666;2024-01-11T02:18:11;29.40;;;12.05;;
59024;SDS011;44806;48.008;13.666;2024-01-11T02:20:39;26.15;;;12.70;;
59024;SDS011;44806;48.008;13.666;2024-01-11T02:23:07;28.60;;;12.35;;
59024;SDS011;44806;48.008;13.666;2024-01-11T02:25:39;29.02;;;11.07;;
59024;SDS011;44806;48.008;13.666;2024-01-11T02:28:05;25.40;;;9.52;;
59024;SDS011;44806;48.008;13.666;2024-01-11T02:30:33;24.25;;;12.48;;
59024;SDS011;44806;48.008;13.666;2024-01-11T02:33:00;32.53;;;13.57;;
59024;SDS011;44806;48.008;13.666;2024-01-11T02:35:28;25.77;;;11.57;;
59024;SDS011;44806;48.008;13.666;2024-01-11T02:37:55;30.40;;;10.50;;
59024;SDS011;44806;48.008;13.666;2024-01-11T02:40:23;23.15;;;9.48;;
59024;SDS011;44806;48.008;13.666;2024-01-11T02:42:52;25.52;;;10.65;;
59024;SDS011;44806;48.008;13.666;2024-01-11T02:45:19;21.42;;;11.27;;
59024;SDS011;44806;48.008;13.666;2024-01-11T02:47:46;24.15;;;12.57;;
59024;SDS011;44806;48.008;13.666;2024-01-11T02:50:13;21.67;;;12.73;;
59024;SDS011;44806;48.008;13.666;2024-01-11T02:52:40;24.17;;;9.75;;
59024;SDS011;44806;48.008;13.666;2024-01-11T02:55:07;40.42;;;13.70;;
59024;SDS011;44806;48.008;13.666;2024-01-11T02:57:34;30.85;;;10.88;;
59024;SDS011;44806;48.008;13.666;2024-01-11T03:00:02;26.02;;;12.10;;
59024;SDS011;44806;48.008;13.666;2024-01-11T03:02:30;26.17;;;10.82;;
59024;SDS011;44806;48.008;13.666;2024-01-11T03:04:57;21.05;;;10.55;;
59024;SDS011;44806;48.008;13.666;2024-01-11T03:07:24;24.67;;;12.10;;
59024;SDS011;44806;48.008;13.666;2024-01-11T03:09:51;22.83;;;9.43;;
59024;SDS011;44806;48.008;13.666;2024-01-11T03:12:18;25.13;;;12.50;;
59024;SDS011;44806;48.008;13.666;2024-01-11T03:14:45;33.38;;;14.15;;
59024;SDS011;44806;48.008;13.666;2024-01-11T03:17:13;21.50;;;11.57;;
59024;SDS011;44806;48.008;13.666;2024-01-11T03:19:40;28.50;;;11.57;;
59024;SDS011;44806;48.008;13.666;2024-01-11T03:22:07;19.88;;;9.85;;
59024;SDS011;44806;48.008;13.666;2024-01-11T03:24:37;24.15;;;10.70;;
59024;SDS011;44806;48.008;13.666;2024-01-11T03:27:05;33.90;;;11.80;;
59024;SDS011;44806;48.008;13.666;2024-01-11T03:29:32;22.92;;;11.82;;
59024;SDS011;44806;48.008;13.666;2024-01-11T03:34:44;26.35;;;11.80;;
59024;SDS011;44806;48.008;13.666;2024-01-11T03:37:11;28.00;;;13.73;;
59024;SDS011;44806;48.008;13.666;2024-01-11T03:39:37;38.55;;;14.77;;
59024;SDS011;44806;48.008;13.666;2024-01-11T03:42:04;33.17;;;14.13;;
59024;SDS011;44806;48.008;13.666;2024-01-11T03:44:31;41.42;;;14.07;;
59024;SDS011;44806;48.008;13.666;2024-01-11T03:46:58;27.27;;;12.10;;
59024;SDS011;44806;48.008;13.666;2024-01-11T03:49:25;34.78;;;13.20;;
59024;SDS011;44806;48.008;13.666;2024-01-11T03:51:53;29.10;;;13.68;;
59024;SDS011;44806;48.008;13.666;2024-01-11T03:54:20;26.73;;;11.60;;
59024;SDS011;44806;48.008;13.666;2024-01-11T03:56:47;27.55;;;10.23;;
59024;SDS011;44806;48.008;13.666;2024-01-11T04:01:40;19.63;;;10.85;;
59024;SDS011;44806;48.008;13.666;2024-01-11T04:04:07;27.27;;;10.50;;
59024;SDS011;44806;48.008;13.666;2024-01-11T04:06:34;24.83;;;11.85;;
59024;SDS011;44806;48.008;13.666;2024-01-11T04:09:02;35.22;;;14.35;;
59024;SDS011;44806;48.008;13.666;2024-01-11T04:11:29;35.10;;;13.77;;
59024;SDS011;44806;48.008;13.666;2024-01-11T04:13:56;29.20;;;12.68;;
59024;SDS011;44806;48.008;13.666;2024-01-11T04:16:23;21.25;;;10.27;;
59024;SDS011;44806;48.008;13.666;2024-01-11T04:18:50;26.98;;;11.95;;
59024;SDS011;44806;48.008;13.666;2024-01-11T04:21:20;26.33;;;12.50;;
59024;SDS011;44806;48.008;13.666;2024-01-11T04:23:48;26.10;;;10.93;;
59024;SDS011;44806;48.008;13.666;2024-01-11T04:26:17;23.40;;;9.73;;
59024;SDS011;44806;48.008;13.666;2024-01-11T04:28:44;24.13;;;12.30;;
59024;SDS011;44806;48.008;13.666;2024-01-11T04:31:12;29.05;;;12.98;;
59024;SDS011;44806;48.008;13.666;2024-01-11T04:33:40;33.80;;;13.43;;
59024;SDS011;44806;48.008;13.666;2024-01-11T04:36:07;22.05;;;12.10;;
59024;SDS011;44806;48.008;13.666;2024-01-11T04:38:35;29.30;;;12.15;;
59024;SDS011;44806;48.008;13.666;2024-01-11T04:41:02;25.48;;;12.40;;
59024;SDS011;44806;48.008;13.666;2024-01-11T04:43:35;25.63;;;12.63;;
59024;SDS011;44806;48.008;13.666;2024-01-11T04:46:03;29.05;;;10.23;;
59024;SDS011;44806;48.008;13.666;2024-01-11T04:48:38;36.17;;;13.35;;
59024;SDS011;44806;48.008;13.666;2024-01-11T04:51:05;31.98;;;13.70;;
59024;SDS011;44806;48.008;13.666;2024-01-11T04:53:32;25.80;;;13.15;;
59024;SDS011;44806;48.008;13.666;2024-01-11T04:55:59;19.38;;;11.18;;
59024;SDS011;44806;48.008;13.666;2024-01-11T04:58:26;27.42;;;14.13;;
59024;SDS011;44806;48.008;13.666;2024-01-11T05:00:54;30.08;;;13.57;;
59024;SDS011;44806;48.008;13.666;2024-01-11T05:03:21;14.35;;;8.98;;
59024;SDS011;44806;48.008;13.666;2024-01-11T05:05:47;23.42;;;10.02;;
59024;SDS011;44806;48.008;13.666;2024-01-11T05:08:14;26.88;;;13.02;;
59024;SDS011;44806;48.008;13.666;2024-01-11T05:10:41;27.17;;;11.95;;
59024;SDS011;44806;48.008;13.666;2024-01-11T05:13:09;28.13;;;12.70;;
59024;SDS011;44806;48.008;13.666;2024-01-11T05:15:36;32.92;;;11.98;;
59024;SDS011;44806;48.008;13.666;2024-01-11T05:18:05;26.60;;;14.00;;
59024;SDS011;44806;48.008;13.666;2024-01-11T05:20:32;29.40;;;12.13;;
59024;SDS011;44806;48.008;13.666;2024-01-11T05:22:59;30.77;;;14.93;;
59024;SDS011;44806;48.008;13.666;2024-01-11T05:25:26;32.85;;;13.68;;
59024;SDS011;44806;48.008;13.666;2024-01-11T05:27:53;36.75;;;15.95;;
59024;SDS011;44806;48.008;13.666;2024-01-11T05:30:20;30.73;;;13.75;;
59024;SDS011;44806;48.008;13.666;2024-01-11T05:32:47;36.72;;;14.63;;
59024;SDS011;44806;48.008;13.666;2024-01-11T05:35:15;30.05;;;13.77;;
59024;SDS011;44806;48.008;13.666;2024-01-11T05:37:42;29.17;;;14.38;;
59024;SDS011;44806;48.008;13.666;2024-01-11T05:40:09;25.45;;;13.15;;
59024;SDS011;44806;48.008;13.666;2024-01-11T05:42:36;27.10;;;13.18;;
59024;SDS011;44806;48.008;13.666;2024-01-11T05:45:03;36.65;;;14.98;;
59024;SDS011;44806;48.008;13.666;2024-01-11T05:47:31;25.30;;;11.18;;
59024;SDS011;44806;48.008;13.666;2024-01-11T05:49:58;40.92;;;15.90;;
59024;SDS011;44806;48.008;13.666;2024-01-11T05:52:26;40.45;;;17.33;;
59024;SDS011;44806;48.008;13.666;2024-01-11T05:54:53;35.25;;;15.98;;
59024;SDS011;44806;48.008;13.666;2024-01-11T05:57:20;43.67;;;15.98;;
59024;SDS011;44806;48.008;13.666;2024-01-11T05:59:47;38.55;;;14.52;;
59024;SDS011;44806;48.008;13.666;2024-01-11T06:02:14;39.35;;;14.68;;
59024;SDS011;44806;48.008;13.666;2024-01-11T06:04:41;49.85;;;18.20;;
59024;SDS011;44806;48.008;13.666;2024-01-11T06:07:08;37.90;;;19.30;;
59024;SDS011;44806;48.008;13.666;2024-01-11T06:09:36;41.30;;;15.25;;
59024;SDS011;44806;48.008;13.666;2024-01-11T06:12:04;28.48;;;11.73;;
59024;SDS011;44806;48.008;13.666;2024-01-11T06:14:31;41.38;;;17.42;;
59024;SDS011;44806;48.008;13.666;2024-01-11T06:16:58;35.17;;;17.50;;
59024;SDS011;44806;48.008;13.666;2024-01-11T06:19:25;34.67;;;14.90;;
59024;SDS011;44806;48.008;13.666;2024-01-11T06:21:51;44.05;;;19.25;;
59024;SDS011;44806;48.008;13.666;2024-01-11T06:24:18;37.67;;;15.43;;
59024;SDS011;44806;48.008;13.666;2024-01-11T06:26:47;40.88;;;15.77;;
59024;SDS011;44806;48.008;13.666;2024-01-11T06:29:14;38.65;;;16.58;;
59024;SDS011;44806;48.008;13.666;2024-01-11T06:31:41;34.97;;;14.77;;
59024;SDS011;44806;48.008;13.666;2024-01-11T06:34:08;39.03;;;17.85;;
59024;SDS011;44806;48.008;13.666;2024-01-11T06:36:34;51.72;;;15.35;;
59024;SDS011;44806;48.008;13.666;2024-01-11T06:39:01;32.85;;;16.38;;
59024;SDS011;44806;48.008;13.666;2024-01-11T06:41:29;46.30;;;18.70;;
59024;SDS011;44806;48.008;13.666;2024-01-11T06:43:57;34.80;;;13.32;;
59024;SDS011;44806;48.008;13.666;2024-01-11T06:46:24;39.08;;;15.93;;
59024;SDS011;44806;48.008;13.666;2024-01-11T06:48:51;42.65;;;19.08;;
59024;SDS011;44806;48.008;13.666;2024-01-11T06:51:20;39.13;;;17.30;;
59024;SDS011;44806;48.008;13.666;2024-01-11T06:53:48;42.05;;;17.10;;
59024;SDS011;44806;48.008;13.666;2024-01-11T06:56:15;38.58;;;15.93;;
59024;SDS011;44806;48.008;13.666;2024-01-11T06:58:43;47.78;;;16.65;;
59024;SDS011;44806;48.008;13.666;2024-01-11T07:01:12;35.25;;;14.18;;
59024;SDS011;44806;48.008;13.666;2024-01-11T07:03:39;26.15;;;9.45;;
59024;SDS011;44806;48.008;13.666;2024-01-11T07:06:06;43.38;;;15.65;;
59024;SDS011;44806;48.008;13.666;2024-01-11T07:08:33;36.33;;;17.58;;
59024;SDS011;44806;48.008;13.666;2024-01-11T07:11:00;38.72;;;15.23;;
59024;SDS011;44806;48.008;13.666;2024-01-11T07:13:28;36.83;;;13.57;;
59024;SDS011;44806;48.008;13.666;2024-01-11T07:15:55;39.08;;;15.73;;
59024;SDS011;44806;48.008;13.666;2024-01-11T07:18:24;30.77;;;12.45;;
59024;SDS011;44806;48.008;13.666;2024-01-11T07:20:52;34.25;;;13.55;;
59024;SDS011;44806;48.008;13.666;2024-01-11T07:23:19;33.53;;;12.20;;
59024;SDS011;44806;48.008;13.666;2024-01-11T07:25:46;27.75;;;13.90;;
59024;SDS011;44806;48.008;13.666;2024-01-11T07:28:13;27.15;;;12.60;;
59024;SDS011;44806;48.008;13.666;2024-01-11T07:30:42;26.95;;;12.40;;
59024;SDS011;44806;48.008;13.666;2024-01-11T07:33:10;30.90;;;13.63;;
59024;SDS011;44806;48.008;13.666;2024-01-11T07:35:38;39.97;;;13.82;;
59024;SDS011;44806;48.008;13.666;2024-01-11T07:38:05;33.17;;;11.23;;
59024;SDS011;44806;48.008;13.666;2024-01-11T07:40:32;33.55;;;12.50;;
59024;SDS011;44806;48.008;13.666;2024-01-11T07:42:59;36.08;;;17.45;;
59024;SDS011;44806;48.008;13.666;2024-01-11T07:45:26;38.67;;;17.00;;
59024;SDS011;44806;48.008;13.666;2024-01-11T07:47:52;41.78;;;17.10;;
59024;SDS011;44806;48.008;13.666;2024-01-11T07:50:19;44.60;;;15.25;;
59024;SDS011;44806;48.008;13.666;2024-01-11T07:52:48;39.95;;;15.52;;
59024;SDS011;44806;48.008;13.666;2024-01-11T07:55:15;50.58;;;15.63;;
59024;SDS011;44806;48.008;13.666;2024-01-11T07:57:42;34.65;;;15.00;;
59024;SDS011;44806;48.008;13.666;2024-01-11T08:00:09;35.80;;;15.38;;
59024;SDS011;44806;48.008;13.666;2024-01-11T08:02:36;43.42;;;17.60;;
59024;SDS011;44806;48.008;13.666;2024-01-11T08:05:03;32.80;;;15.07;;
59024;SDS011;44806;48.008;13.666;2024-01-11T08:07:30;46.75;;;16.73;;
59024;SDS011;44806;48.008;13.666;2024-01-11T08:09:59;44.85;;;17.20;;
59024;SDS011;44806;48.008;13.666;2024-01-11T08:12:26;38.97;;;15.98;;
59024;SDS011;44806;48.008;13.666;2024-01-11T08:14:53;43.55;;;18.55;;
59024;SDS011;44806;48.008;13.666;2024-01-11T08:17:21;49.83;;;19.35;;
59024;SDS011;44806;48.008;13.666;2024-01-11T08:19:48;50.55;;;18.52;;
59024;SDS011;44806;48.008;13.666;2024-01-11T08:22:15;39.15;;;17.67;;
59024;SDS011;44806;48.008;13.666;2024-01-11T08:24:42;43.65;;;15.15;;
59024;SDS011;44806;48.008;13.666;2024-01-11T08:27:10;57.67;;;19.73;;
59024;SDS011;44806;48.008;13.666;2024-01-11T08:29:37;50.13;;;19.95;;
59024;SDS011;44806;48.008;13.666;2024-01-11T08:32:04;34.33;;;15.98;;
59024;SDS011;44806;48.008;13.666;2024-01-11T08:34:32;29.88;;;13.15;;
59024;SDS011;44806;48.008;13.666;2024-01-11T08:36:59;40.55;;;15.70;;
59024;SDS011;44806;48.008;13.666;2024-01-11T08:39:26;40.13;;;16.10;;
59024;SDS011;44806;48.008;13.666;2024-01-11T08:41:53;43.33;;;19.70;;
59024;SDS011;44806;48.008;13.666;2024-01-11T08:44:21;45.17;;;18.85;;
59024;SDS011;44806;48.008;13.666;2024-01-11T08:46:48;45.10;;;17.48;;
59024;SDS011;44806;48.008;13.666;2024-01-11T08:49:15;37.58;;;17.27;;
59024;SDS011;44806;48.008;13.666;2024-01-11T08:51:41;41.85;;;17.13;;
59024;SDS011;44806;48.008;13.666;2024-01-11T08:54:08;40.47;;;15.35;;
59024;SDS011;44806;48.008;13.666;2024-01-11T08:56:36;31.60;;;12.52;;
59024;SDS011;44806;48.008;13.666;2024-01-11T08:59:05;47.83;;;20.42;;
59024;SDS011;44806;48.008;13.666;2024-01-11T09:01:35;44.30;;;17.17;;
59024;SDS011;44806;48.008;13.666;2024-01-11T09:04:03;30.13;;;14.10;;
59024;SDS011;44806;48.008;13.666;2024-01-11T09:06:31;40.65;;;16.83;;
59024;SDS011;44806;48.008;13.666;2024-01-11T09:08:58;50.13;;;17.13;;
59024;SDS011;44806;48.008;13.666;2024-01-11T09:11:25;44.40;;;17.83;;
59024;SDS011;44806;48.008;13.666;2024-01-11T09:13:52;43.85;;;18.52;;
59024;SDS011;44806;48.008;13.666;2024-01-11T09:16:19;48.97;;;18.75;;
59024;SDS011;44806;48.008;13.666;2024-01-11T09:18:47;48.13;;;17.85;;
59024;SDS011;44806;48.008;13.666;2024-01-11T09:21:14;47.97;;;19.33;;
59024;SDS011;44806;48.008;13.666;2024-01-11T09:23:41;46.08;;;17.30;;
59024;SDS011;44806;48.008;13.666;2024-01-11T09:26:08;43.03;;;19.88;;
59024;SDS011;44806;48.008;13.666;2024-01-11T09:28:35;39.90;;;17.33;;
59024;SDS011;44806;48.008;13.666;2024-01-11T09:31:02;45.35;;;17.55;;
59024;SDS011;44806;48.008;13.666;2024-01-11T09:33:29;43.78;;;17.83;;
59024;SDS011;44806;48.008;13.666;2024-01-11T09:35:57;43.42;;;17.58;;
59024;SDS011;44806;48.008;13.666;2024-01-11T09:38:24;40.63;;;18.45;;
59024;SDS011;44806;48.008;13.666;2024-01-11T09:40:54;45.70;;;18.05;;
59024;SDS011;44806;48.008;13.666;2024-01-11T09:43:29;47.22;;;17.83;;
59024;SDS011;44806;48.008;13.666;2024-01-11T09:45:57;46.90;;;17.17;;
59024;SDS011;44806;48.008;13.666;2024-01-11T09:48:24;44.88;;;16.92;;
59024;SDS011;44806;48.008;13.666;2024-01-11T09:50:52;46.45;;;18.42;;
59024;SDS011;44806;48.008;13.666;2024-01-11T09:53:23;54.70;;;17.70;;
59024;SDS011;44806;48.008;13.666;2024-01-11T09:55:51;52.95;;;18.50;;
59024;SDS011;44806;48.008;13.666;2024-01-11T09:58:20;42.15;;;16.33;;
59024;SDS011;44806;48.008;13.666;2024-01-11T10:00:47;42.95;;;17.65;;
59024;SDS011;44806;48.008;13.666;2024-01-11T10:03:18;45.97;;;17.35;;
59024;SDS011;44806;48.008;13.666;2024-01-11T10:05:46;51.58;;;18.42;;
59024;SDS011;44806;48.008;13.666;2024-01-11T10:08:15;47.92;;;19.00;;
59024;SDS011;44806;48.008;13.666;2024-01-11T10:10:44;52.20;;;19.00;;
59024;SDS011;44806;48.008;13.666;2024-01-11T10:13:11;48.47;;;19.75;;
59024;SDS011;44806;48.008;13.666;2024-01-11T10:15:38;51.78;;;18.45;;
59024;SDS011;44806;48.008;13.666;2024-01-11T10:18:05;49.47;;;18.10;;
59024;SDS011;44806;48.008;13.666;2024-01-11T10:20:32;48.90;;;21.70;;
59024;SDS011;44806;48.008;13.666;2024-01-11T10:22:59;35.88;;;16.08;;
59024;SDS011;44806;48.008;13.666;2024-01-11T10:25:28;47.53;;;18.42;;
59024;SDS011;44806;48.008;13.666;2024-01-11T10:27:57;52.13;;;19.67;;
59024;SDS011;44806;48.008;13.666;2024-01-11T10:30:24;42.15;;;16.92;;
59024;SDS011;44806;48.008;13.666;2024-01-11T10:32:52;44.17;;;16.73;;
59024;SDS011;44806;48.008;13.666;2024-01-11T10:35:19;38.28;;;17.15;;
59024;SDS011;44806;48.008;13.666;2024-01-11T10:37:47;36.53;;;15.32;;
59024;SDS011;44806;48.008;13.666;2024-01-11T10:40:18;44.20;;;16.83;;
59024;SDS011;44806;48.008;13.666;2024-01-11T10:42:49;46.40;;;16.02;;
59024;SDS011;44806;48.008;13.666;2024-01-11T10:45:19;44.65;;;16.45;;
59024;SDS011;44806;48.008;13.666;2024-01-11T10:47:50;45.95;;;17.65;;
59024;SDS011;44806;48.008;13.666;2024-01-11T10:50:19;42.50;;;16.05;;
59024;SDS011;44806;48.008;13.666;2024-01-11T10:52:51;47.25;;;19.92;;
59024;SDS011;44806;48.008;13.666;2024-01-11T10:55:27;53.25;;;18.27;;
59024;SDS011;44806;48.008;13.666;2024-01-11T10:57:57;44.88;;;18.23;;
59024;SDS011;44806;48.008;13.666;2024-01-11T11:00:27;52.80;;;19.50;;
59024;SDS011;44806;48.008;13.666;2024-01-11T11:02:55;42.00;;;16.48;;
59024;SDS011;44806;48.008;13.666;2024-01-11T11:05:25;44.85;;;18.65;;
59024;SDS011;44806;48.008;13.666;2024-01-11T11:07:53;56.28;;;21.35;;
59024;SDS011;44806;48.008;13.666;2024-01-11T11:10:22;43.97;;;18.13;;
59024;SDS011;44806;48.008;13.666;2024-01-11T11:12:51;54.67;;;19.23;;
59024;SDS011;44806;48.008;13.666;2024-01-11T11:15:20;48.15;;;19.50;;
59024;SDS011;44806;48.008;13.666;2024-01-11T11:17:51;51.60;;;19.77;;
59024;SDS011;44806;48.008;13.666;2024-01-11T11:20:18;47.55;;;20.33;;
59024;SDS011;44806;48.008;13.666;2024-01-11T11:22:48;48.03;;;18.40;;
59024;SDS011;44806;48.008;13.666;2024-01-11T11:25:29;47.50;;;18.45;;
59024;SDS011;44806;48.008;13.666;2024-01-11T11:27:57;43.08;;;19.35;;
59024;SDS011;44806;48.008;13.666;2024-01-11T11:30:26;53.83;;;18.40;;
59024;SDS011;44806;48.008;13.666;2024-01-11T11:32:54;38.22;;;15.05;;
59024;SDS011;44806;48.008;13.666;2024-01-11T11:35:22;50.95;;;19.45;;
59024;SDS011;44806;48.008;13.666;2024-01-11T11:37:53;46.97;;;17.38;;
59024;SDS011;44806;48.008;13.666;2024-01-11T11:40:21;56.92;;;21.88;;
59024;SDS011;44806;48.008;13.666;2024-01-11T11:42:58;53.53;;;20.48;;
59024;SDS011;44806;48.008;13.666;2024-01-11T11:45:27;56.63;;;19.00;;
59024;SDS011;44806;48.008;13.666;2024-01-11T11:47:56;50.97;;;19.70;;
59024;SDS011;44806;48.008;13.666;2024-01-11T11:50:23;50.28;;;19.13;;
59024;SDS011;44806;48.008;13.666;2024-01-11T11:52:53;49.65;;;18.50;;
59024;SDS011;44806;48.008;13.666;2024-01-11T11:55:22;54.97;;;19.55;;
59024;SDS011;44806;48.008;13.666;2024-01-11T11:57:50;46.20;;;16.35;;
59024;SDS011;44806;48.008;13.666;2024-01-11T12:00:17;49.08;;;19.17;;
59024;SDS011;44806;48.008;13.666;2024-01-11T12:02:45;44.75;;;15.57;;
59024;SDS011;44806;48.008;13.666;2024-01-11T12:05:15;37.63;;;15.10;;
59024;SDS011;44806;48.008;13.666;2024-01-11T12:07:43;37.47;;;15.32;;
59024;SDS011;44806;48.008;13.666;2024-01-11T12:10:11;52.05;;;16.88;;
59024;SDS011;44806;48.008;13.666;2024-01-11T12:12:38;43.45;;;17.27;;
59024;SDS011;44806;48.008;13.666;2024-01-11T12:15:06;58.95;;;21.15;;
59024;SDS011;44806;48.008;13.666;2024-01-11T12:17:34;54.80;;;19.65;;
59024;SDS011;44806;48.008;13.666;2024-01-11T12:20:01;47.75;;;17.80;;
59024;SDS011;44806;48.008;13.666;2024-01-11T12:22:29;46.90;;;20.10;;
59024;SDS011;44806;48.008;13.666;2024-01-11T12:24:56;47.22;;;18.38;;
59024;SDS011;44806;48.008;13.666;2024-01-11T12:27:23;30.13;;;12.82;;
59024;SDS011;44806;48.008;13.666;2024-01-11T12:29:51;38.88;;;17.10;;
59024;SDS011;44806;48.008;13.666;2024-01-11T12:32:19;49.45;;;19.48;;
59024;SDS011;44806;48.008;13.666;2024-01-11T12:34:47;47.13;;;16.95;;
59024;SDS011;44806;48.008;13.666;2024-01-11T12:37:15;45.30;;;19.35;;
59024;SDS011;44806;48.008;13.666;2024-01-11T12:39:44;39.65;;;15.18;;
59024;SDS011;44806;48.008;13.666;2024-01-11T12:42:11;43.95;;;17.30;;
59024;SDS011;44806;48.008;13.666;2024-01-11T12:44:39;45.83;;;17.05;;
59024;SDS011;44806;48.008;13.666;2024-01-11T12:47:07;38.92;;;14.70;;
59024;SDS011;44806;48.008;13.666;2024-01-11T12:49:34;37.42;;;16.60;;
59024;SDS011;44806;48.008;13.666;2024-01-11T12:52:02;48.08;;;19.40;;
59024;SDS011;44806;48.008;13.666;2024-01-11T12:54:29;41.70;;;15.43;;
59024;SDS011;44806;48.008;13.666;2024-01-11T12:57:01;50.10;;;17.02;;
59024;SDS011;44806;48.008;13.666;2024-01-11T12:59:28;52.20;;;18.52;;
59024;SDS011;44806;48.008;13.666;2024-01-11T13:01:55;29.77;;;13.43;;
59024;SDS011;44806;48.008;13.666;2024-01-11T13:04:24;44.17;;;19.92;;
59024;SDS011;44806;48.008;13.666;2024-01-11T13:06:51;50.65;;;19.17;;
59024;SDS011;44806;48.008;13.666;2024-01-11T13:09:18;52.70;;;20.17;;
59024;SDS011;44806;48.008;13.666;2024-01-11T13:11:45;50.47;;;17.55;;
59024;SDS011;44806;48.008;13.666;2024-01-11T13:14:13;49.63;;;17.55;;
59024;SDS011;44806;48.008;13.666;2024-01-11T13:16:44;41.10;;;15.68;;
59024;SDS011;44806;48.008;13.666;2024-01-11T13:19:11;41.20;;;15.90;;
59024;SDS011;44806;48.008;13.666;2024-01-11T13:21:38;49.83;;;18.00;;
59024;SDS011;44806;48.008;13.666;2024-01-11T13:24:06;45.90;;;17.20;;
59024;SDS011;44806;48.008;13.666;2024-01-11T13:26:33;46.95;;;16.42;;
59024;SDS011;44806;48.008;13.666;2024-01-11T13:29:01;41.38;;;16.73;;
59024;SDS011;44806;48.008;13.666;2024-01-11T13:31:30;43.88;;;16.85;;
59024;SDS011;44806;48.008;13.666;2024-01-11T13:33:57;47.05;;;17.23;;
59024;SDS011;44806;48.008;13.666;2024-01-11T13:36:24;37.85;;;15.02;;
59024;SDS011;44806;48.008;13.666;2024-01-11T13:38:51;44.45;;;19.48;;
59024;SDS011;44806;48.008;13.666;2024-01-11T13:41:18;52.33;;;17.98;;
59024;SDS011;44806;48.008;13.666;2024-01-11T13:43:46;49.80;;;18.70;;
59024;SDS011;44806;48.008;13.666;2024-01-11T13:46:13;55.85;;;19.67;;
59024;SDS011;44806;48.008;13.666;2024-01-11T13:48:46;46.67;;;18.02;;
59024;SDS011;44806;48.008;13.666;2024-01-11T13:51:13;48.38;;;18.75;;
59024;SDS011;44806;48.008;13.666;2024-01-11T13:53:40;55.97;;;22.00;;
59024;SDS011;44806;48.008;13.666;2024-01-11T13:56:07;44.35;;;18.88;;
59024;SDS011;44806;48.008;13.666;2024-01-11T13:58:34;49.38;;;17.08;;
59024;SDS011;44806;48.008;13.666;2024-01-11T14:01:01;68.53;;;22.70;;
59024;SDS011;44806;48.008;13.666;2024-01-11T14:03:28;51.67;;;18.83;;
59024;SDS011;44806;48.008;13.666;2024-01-11T14:05:56;48.33;;;18.83;;
59024;SDS011;44806;48.008;13.666;2024-01-11T14:08:24;51.83;;;19.40;;
59024;SDS011;44806;48.008;13.666;2024-01-11T14:10:51;53.10;;;21.20;;
59024;SDS011;44806;48.008;13.666;2024-01-11T14:13:19;51.92;;;19.05;;
59024;SDS011;44806;48.008;13.666;2024-01-11T14:15:46;46.45;;;17.95;;
59024;SDS011;44806;48.008;13.666;2024-01-11T14:18:15;49.92;;;18.73;;